createdAt,value
2022-12-13T00:01:19.676Z,11.57
2022-12-13T00:03:47.243Z,10.27
2022-12-13T00:06:14.802Z,10.50
2022-12-13T00:08:42.635Z,9.83
2022-12-13T00:11:12.181Z,9.77
2022-12-13T00:13:39.708Z,10.57
2022-12-13T00:16:08.922Z,11.73
2022-12-13T00:18:37.747Z,9.67
2022-12-13T00:21:05.551Z,10.90
2022-12-13T00:23:33.006Z,11.50
2022-12-13T00:26:03.060Z,11.90
2022-12-13T00:28:30.519Z,10.27
2022-12-13T00:31:04.349Z,10.03
2022-12-13T00:33:42.612Z,9.77
2022-12-13T00:36:10.547Z,13.33
2022-12-13T00:38:38.493Z,14.40
2022-12-13T00:41:13.158Z,17.97
2022-12-13T00:43:40.649Z,16.37
2022-12-13T00:46:08.764Z,15.03
2022-12-13T00:48:36.225Z,16.17
2022-12-13T00:51:08.277Z,20.90
2022-12-13T00:53:36.150Z,16.97
2022-12-13T00:56:03.654Z,15.80
2022-12-13T00:58:31.116Z,11.10
2022-12-13T01:01:03.647Z,17.50
2022-12-13T01:03:31.523Z,15.83
2022-12-13T01:06:16.189Z,18.13
2022-12-13T01:08:45.527Z,12.93
2022-12-13T01:11:13.087Z,12.50
2022-12-13T01:13:40.515Z,13.43
2022-12-13T01:16:09.011Z,10.90
2022-12-13T01:18:36.485Z,10.50
2022-12-13T01:21:05.064Z,10.20
2022-12-13T01:23:32.968Z,10.63
2022-12-13T01:26:04.631Z,9.77
2022-12-13T01:28:32.566Z,11.27
2022-12-13T01:31:00.852Z,9.27
2022-12-13T01:33:30.285Z,8.93
2022-12-13T01:35:57.770Z,9.90
2022-12-13T01:38:26.238Z,8.97
2022-12-13T01:40:58.991Z,9.53
2022-12-13T01:43:30.041Z,9.20
2022-12-13T01:45:57.575Z,8.83
2022-12-13T01:48:27.611Z,9.57
2022-12-13T01:50:57.226Z,9.40
2022-12-13T01:53:28.063Z,8.67
2022-12-13T01:55:56.653Z,8.90
2022-12-13T01:58:24.511Z,8.70
2022-12-13T02:00:53.327Z,8.70
2022-12-13T02:03:22.143Z,8.57
2022-12-13T02:05:54.207Z,10.47
2022-12-13T02:08:22.435Z,9.73
2022-12-13T02:10:51.008Z,10.07
2022-12-13T02:13:18.434Z,10.03
2022-12-13T02:15:48.882Z,9.07
2022-12-13T02:18:24.348Z,9.17
2022-12-13T02:21:03.008Z,9.00
2022-12-13T02:23:54.281Z,10.40
2022-12-13T02:26:38.350Z,8.97
2022-12-13T02:29:12.427Z,8.30
2022-12-13T02:32:01.823Z,9.00
2022-12-13T02:34:35.455Z,8.00
2022-12-13T02:37:04.562Z,10.70
2022-12-13T02:39:49.315Z,8.90
2022-12-13T02:42:21.878Z,9.20
2022-12-13T02:44:52.207Z,9.07
2022-12-13T02:47:22.869Z,10.13
2022-12-13T02:49:52.160Z,9.40
2022-12-13T02:52:22.444Z,9.67
2022-12-13T02:54:50.264Z,9.13
2022-12-13T02:57:29.684Z,8.57
2022-12-13T02:59:57.812Z,8.37
2022-12-13T03:02:32.283Z,9.33
2022-12-13T03:05:22.266Z,7.73
2022-12-13T03:07:55.424Z,9.20
2022-12-13T03:10:29.765Z,8.00
2022-12-13T03:13:17.164Z,7.77
2022-12-13T03:15:49.682Z,8.33
2022-12-13T03:18:19.496Z,8.10
2022-12-13T03:20:48.466Z,8.10
2022-12-13T03:23:16.266Z,7.87
2022-12-13T03:25:44.396Z,8.20
2022-12-13T03:28:12.579Z,7.10
2022-12-13T03:30:40.074Z,8.03
2022-12-13T03:33:07.606Z,7.50
2022-12-13T03:35:44.938Z,7.80
2022-12-13T03:38:13.340Z,7.50
2022-12-13T03:40:50.629Z,7.57
2022-12-13T03:43:21.970Z,7.20
2022-12-13T03:45:50.391Z,7.70
2022-12-13T03:48:22.571Z,9.57
2022-12-13T03:50:52.920Z,7.37
2022-12-13T03:53:32.202Z,7.17
2022-12-13T03:56:02.424Z,8.07
2022-12-13T03:58:36.524Z,8.17
2022-12-13T04:01:05.567Z,8.23
2022-12-13T04:03:33.032Z,8.63
2022-12-13T04:06:01.822Z,7.70
2022-12-13T04:08:29.392Z,8.10
2022-12-13T04:10:56.885Z,8.07
2022-12-13T04:13:35.403Z,8.27
2022-12-13T04:16:03.497Z,7.80
2022-12-13T04:18:31.274Z,8.33
2022-12-13T04:20:58.737Z,8.63
2022-12-13T04:23:27.641Z,7.30
2022-12-13T04:25:55.116Z,8.20
2022-12-13T04:28:23.253Z,7.90
2022-12-13T04:30:52.812Z,7.20
2022-12-13T04:33:21.627Z,7.50
2022-12-13T04:35:49.113Z,7.80
2022-12-13T04:38:16.626Z,7.23
2022-12-13T04:40:45.444Z,7.90
2022-12-13T04:43:12.918Z,7.30
2022-12-13T04:45:40.451Z,7.50
2022-12-13T04:48:08.427Z,8.43
2022-12-13T04:50:35.948Z,8.57
2022-12-13T04:53:03.565Z,7.50
2022-12-13T04:55:31.013Z,9.03
2022-12-13T04:57:59.773Z,7.67
2022-12-13T05:00:27.216Z,7.70
2022-12-13T05:02:54.737Z,8.27
2022-12-13T05:05:22.413Z,8.53
2022-12-13T05:07:49.951Z,11.57
2022-12-13T05:10:31.960Z,11.63
2022-12-13T05:13:06.890Z,11.73
2022-12-13T05:15:34.426Z,13.47
2022-12-13T05:18:09.459Z,15.07
2022-12-13T05:20:38.381Z,17.77
2022-12-13T05:23:05.845Z,18.03
2022-12-13T05:25:33.679Z,18.50
2022-12-13T05:28:08.727Z,18.80
2022-12-13T05:30:40.010Z,18.90
2022-12-13T05:33:07.662Z,15.17
2022-12-13T05:35:35.526Z,17.73
2022-12-13T05:38:03.042Z,20.07
2022-12-13T05:40:32.284Z,20.10
2022-12-13T05:43:01.224Z,16.57
2022-12-13T05:45:29.771Z,17.40
2022-12-13T05:47:58.586Z,19.83
2022-12-13T05:50:26.143Z,16.93
2022-12-13T05:52:53.580Z,17.17
2022-12-13T05:55:21.086Z,14.33
2022-12-13T05:57:50.420Z,15.53
2022-12-13T06:00:30.045Z,16.47
2022-12-13T06:03:01.436Z,14.70
2022-12-13T06:05:29.315Z,12.33
2022-12-13T06:07:57.986Z,14.57
2022-12-13T06:10:34.921Z,12.27
2022-12-13T06:13:21.231Z,16.60
2022-12-13T06:15:52.755Z,15.47
2022-12-13T06:18:33.120Z,14.27
2022-12-13T06:21:02.388Z,13.73
2022-12-13T06:23:31.013Z,15.30
2022-12-13T06:25:58.501Z,15.10
2022-12-13T06:28:25.944Z,14.23
2022-12-13T06:30:53.407Z,14.90
2022-12-13T06:33:23.423Z,15.30
2022-12-13T06:35:53.475Z,15.27
2022-12-13T06:38:21.957Z,13.53
2022-12-13T06:41:06.991Z,14.27
2022-12-13T06:43:34.505Z,15.27
2022-12-13T06:46:04.133Z,16.27
2022-12-13T06:48:31.793Z,12.93
2022-12-13T06:51:02.577Z,15.07
2022-12-13T06:53:30.072Z,15.43
2022-12-13T06:55:57.892Z,14.03
2022-12-13T06:58:25.681Z,14.73
2022-12-13T07:01:01.781Z,11.13
2022-12-13T07:03:29.352Z,10.40
2022-12-13T07:05:58.458Z,12.07
2022-12-13T07:08:27.714Z,13.17
2022-12-13T07:10:55.302Z,11.50
2022-12-13T07:13:23.020Z,11.30
2022-12-13T07:15:50.747Z,10.43
2022-12-13T07:18:18.199Z,12.87
2022-12-13T07:20:45.833Z,11.50
2022-12-13T07:23:13.903Z,10.37
2022-12-13T07:25:42.660Z,10.43
2022-12-13T07:28:10.360Z,10.97
2022-12-13T07:30:46.111Z,9.73
2022-12-13T07:33:13.649Z,11.30
2022-12-13T07:35:55.350Z,11.13
2022-12-13T07:38:23.153Z,9.30
2022-12-13T07:40:51.946Z,11.83
2022-12-13T07:43:19.736Z,9.00
2022-12-13T07:45:47.469Z,10.90
2022-12-13T07:48:14.961Z,9.47
2022-12-13T07:50:42.992Z,9.27
2022-12-13T07:53:10.441Z,10.97
2022-12-13T07:55:38.199Z,10.43
2022-12-13T07:58:08.150Z,9.60
2022-12-13T08:00:35.750Z,10.23
2022-12-13T08:03:03.246Z,10.60
2022-12-13T08:05:38.856Z,10.27
2022-12-13T08:08:07.981Z,12.00
2022-12-13T08:10:35.685Z,11.50
2022-12-13T08:13:03.557Z,10.23
2022-12-13T08:15:32.398Z,10.70
2022-12-13T08:18:00.841Z,12.00
2022-12-13T08:20:28.299Z,11.57
2022-12-13T08:22:56.210Z,11.73
2022-12-13T08:25:30.815Z,10.10
2022-12-13T08:28:01.579Z,10.37
2022-12-13T08:30:30.246Z,11.07
2022-12-13T08:32:59.028Z,10.73
2022-12-13T08:35:34.572Z,10.43
2022-12-13T08:38:02.658Z,10.07
2022-12-13T08:40:30.082Z,11.73
2022-12-13T08:42:57.515Z,11.77
2022-12-13T08:45:25.602Z,10.80
2022-12-13T08:47:53.046Z,10.40
2022-12-13T08:50:21.822Z,10.77
2022-12-13T08:52:49.263Z,10.30
2022-12-13T08:55:18.204Z,10.93
2022-12-13T08:57:48.579Z,9.53
2022-12-13T09:00:17.198Z,10.70
2022-12-13T09:02:44.715Z,10.40
2022-12-13T09:05:13.011Z,11.60
2022-12-13T09:07:42.032Z,10.33
2022-12-13T09:10:26.772Z,10.53
2022-12-13T09:13:01.599Z,11.03
2022-12-13T09:15:34.536Z,10.67
2022-12-13T09:18:05.026Z,10.97
2022-12-13T09:20:32.824Z,12.73
2022-12-13T09:23:13.940Z,10.10
2022-12-13T09:25:54.701Z,10.13
2022-12-13T09:28:22.615Z,9.93
2022-12-13T09:30:50.469Z,11.13
2022-12-13T09:33:30.295Z,10.10
2022-12-13T09:36:01.326Z,12.27
2022-12-13T09:38:30.775Z,11.97
2022-12-13T09:41:05.807Z,11.33
2022-12-13T09:43:42.901Z,11.00
2022-12-13T09:46:22.620Z,10.37
2022-12-13T09:48:51.490Z,9.60
2022-12-13T09:51:27.277Z,12.03
2022-12-13T09:53:59.867Z,14.00
2022-12-13T09:56:27.848Z,12.17
2022-12-13T09:58:56.427Z,14.83
2022-12-13T10:01:24.380Z,11.73
2022-12-13T10:03:52.898Z,11.43
2022-12-13T10:06:23.513Z,11.57
2022-12-13T10:08:58.083Z,12.63
2022-12-13T10:11:31.436Z,15.10
2022-12-13T10:14:04.687Z,13.77
2022-12-13T10:16:36.165Z,14.03
2022-12-13T10:19:28.794Z,15.80
2022-12-13T10:22:02.045Z,15.47
2022-12-13T10:24:36.837Z,13.87
2022-12-13T10:27:12.969Z,11.60
2022-12-13T10:29:55.335Z,12.83
2022-12-13T10:32:23.379Z,12.43
2022-12-13T10:34:50.876Z,13.00
2022-12-13T10:37:27.205Z,15.27
2022-12-13T10:39:54.659Z,12.80
2022-12-13T10:42:26.858Z,12.17
2022-12-13T10:45:10.374Z,12.47
2022-12-13T10:47:38.002Z,11.50
2022-12-13T10:50:05.740Z,12.33
2022-12-13T10:52:34.314Z,11.70
2022-12-13T10:55:24.118Z,12.37
2022-12-13T10:57:53.905Z,10.77
2022-12-13T11:00:41.459Z,10.47
2022-12-13T11:03:11.049Z,11.70
2022-12-13T11:05:39.730Z,13.63
2022-12-13T11:08:14.570Z,11.50
2022-12-13T11:10:42.018Z,12.43
2022-12-13T11:13:22.651Z,13.37
2022-12-13T11:15:55.206Z,12.77
2022-12-13T11:18:24.343Z,12.87
2022-12-13T11:20:55.417Z,14.27
2022-12-13T11:23:26.920Z,12.60
2022-12-13T11:25:57.120Z,13.50
2022-12-13T11:28:37.862Z,10.47
2022-12-13T11:31:12.180Z,11.27
2022-12-13T11:33:48.463Z,11.40
2022-12-13T11:36:20.595Z,12.00
2022-12-13T11:38:58.059Z,13.87
2022-12-13T11:41:32.561Z,13.43
2022-12-13T11:44:03.678Z,13.77
2022-12-13T11:46:38.431Z,11.90
2022-12-13T11:49:10.015Z,11.53
2022-12-13T11:51:41.485Z,11.20
2022-12-13T11:54:12.167Z,15.43
2022-12-13T11:56:42.977Z,13.80
2022-12-13T11:59:27.299Z,12.30
2022-12-13T12:01:56.551Z,11.10
2022-12-13T12:04:35.522Z,12.43
2022-12-13T12:07:30.545Z,11.10
2022-12-13T12:09:58.557Z,11.13
2022-12-13T12:12:31.298Z,14.87
2022-12-13T12:15:05.065Z,13.90
2022-12-13T12:17:43.137Z,11.00
2022-12-13T12:20:13.003Z,13.07
2022-12-13T12:22:41.995Z,13.40
2022-12-13T12:25:16.820Z,11.03
2022-12-13T12:27:49.264Z,12.10
2022-12-13T12:30:22.657Z,12.33
2022-12-13T12:32:55.468Z,12.83
2022-12-13T12:35:45.751Z,15.57
2022-12-13T12:38:23.329Z,13.57
2022-12-13T12:43:45.591Z,11.97
2022-12-13T12:46:24.343Z,13.97
2022-12-13T12:49:02.192Z,13.10
2022-12-13T12:51:35.206Z,16.70
2022-12-13T12:54:11.280Z,13.27
2022-12-13T12:56:41.929Z,14.17
2022-12-13T12:59:13.319Z,13.60
2022-12-13T13:01:51.860Z,11.60
2022-12-13T13:04:22.220Z,12.60
2022-12-13T13:06:51.900Z,11.97
2022-12-13T13:09:24.547Z,11.00
2022-12-13T13:11:57.747Z,12.53
2022-12-13T13:14:29.929Z,13.87
2022-12-13T13:16:59.299Z,11.70
2022-12-13T13:19:43.977Z,11.00
2022-12-13T13:22:31.153Z,10.83
2022-12-13T13:25:02.263Z,11.40
2022-12-13T13:27:30.806Z,11.30
2022-12-13T13:30:06.035Z,12.23
2022-12-13T13:32:37.039Z,11.23
2022-12-13T13:35:23.966Z,14.50
2022-12-13T13:37:51.804Z,11.13
2022-12-13T13:40:31.582Z,10.70
2022-12-13T13:43:03.475Z,13.63
2022-12-13T13:45:31.334Z,10.13
2022-12-13T13:48:15.912Z,11.83
2022-12-13T13:51:01.528Z,10.97
2022-12-13T13:53:40.131Z,12.77
2022-12-13T13:56:12.272Z,14.03
2022-12-13T13:58:58.577Z,11.77
2022-12-13T14:01:55.765Z,12.60
2022-12-13T14:04:39.709Z,14.07
2022-12-13T14:07:26.485Z,11.47
2022-12-13T14:10:07.325Z,12.17
2022-12-13T14:12:48.070Z,14.50
2022-12-13T14:15:39.421Z,12.23
2022-12-13T14:18:29.496Z,10.80
2022-12-13T14:21:02.449Z,13.80
2022-12-13T14:23:36.754Z,10.57
2022-12-13T14:26:22.264Z,10.23
2022-12-13T14:28:50.817Z,10.83
2022-12-13T14:31:26.470Z,10.93
2022-12-13T14:33:54.717Z,11.03
2022-12-13T14:36:28.517Z,11.10
2022-12-13T14:39:03.052Z,10.93
2022-12-13T14:41:30.761Z,12.13
2022-12-13T14:44:13.085Z,10.80
2022-12-13T14:46:48.708Z,10.60
2022-12-13T14:49:16.442Z,14.60
2022-12-13T14:51:45.679Z,12.63
2022-12-13T14:54:24.119Z,9.63
2022-12-13T14:56:57.435Z,10.10
2022-12-13T14:59:25.256Z,10.37
2022-12-13T15:01:57.405Z,11.63
2022-12-13T15:04:27.232Z,12.93
2022-12-13T15:07:06.398Z,11.73
2022-12-13T15:09:36.054Z,12.13
2022-12-13T15:12:15.263Z,12.80
2022-12-13T15:14:57.021Z,11.43
2022-12-13T15:17:29.710Z,10.13
2022-12-13T15:20:22.166Z,9.60
2022-12-13T15:22:57.202Z,15.23
2022-12-13T15:25:25.163Z,10.53
2022-12-13T15:27:54.744Z,10.03
2022-12-13T15:30:22.274Z,11.10
2022-12-13T15:33:05.032Z,13.10
2022-12-13T15:35:32.917Z,16.73
2022-12-13T15:38:02.928Z,12.97
2022-12-13T15:40:31.071Z,15.13
2022-12-13T15:42:58.638Z,14.40
2022-12-13T15:45:33.159Z,13.10
2022-12-13T15:48:04.820Z,10.40
2022-12-13T15:50:34.359Z,10.93
2022-12-13T15:53:03.766Z,11.77
2022-12-13T15:55:35.189Z,14.47
2022-12-13T15:58:03.705Z,12.77
2022-12-13T16:00:32.163Z,12.47
2022-12-13T16:03:09.567Z,11.90
2022-12-13T16:05:38.545Z,11.60
2022-12-13T16:08:14.135Z,13.80
2022-12-13T16:10:46.767Z,11.83
2022-12-13T16:13:25.728Z,12.93
2022-12-13T16:16:00.302Z,12.47
2022-12-13T16:18:43.145Z,15.93
2022-12-13T16:21:10.606Z,18.20
2022-12-13T16:23:39.425Z,11.40
2022-12-13T16:26:09.167Z,15.93
2022-12-13T16:28:36.846Z,11.47
2022-12-13T16:31:10.318Z,12.93
2022-12-13T16:33:37.806Z,10.57
2022-12-13T16:36:05.541Z,11.17
2022-12-13T16:38:33.458Z,11.13
2022-12-13T16:41:08.752Z,10.53
2022-12-13T16:43:39.446Z,10.20
2022-12-13T16:47:13.327Z,10.53
2022-12-13T16:48:54.996Z,12.63
2022-12-13T16:51:22.745Z,11.03
2022-12-13T16:53:50.448Z,11.87
2022-12-13T16:56:21.594Z,12.70
2022-12-13T16:58:50.274Z,15.47
2022-12-13T17:01:19.716Z,11.20
2022-12-13T17:03:47.377Z,13.10
2022-12-13T17:06:15.707Z,11.03
2022-12-13T17:08:43.422Z,11.67
2022-12-13T17:11:14.792Z,14.80
2022-12-13T17:13:48.119Z,15.20
2022-12-13T17:16:15.915Z,15.07
2022-12-13T17:18:43.366Z,13.60
2022-12-13T17:21:11.298Z,12.37
2022-12-13T17:23:38.804Z,13.93
2022-12-13T17:26:06.775Z,14.10
2022-12-13T17:28:34.194Z,15.30
2022-12-13T17:31:07.150Z,13.27
2022-12-13T17:33:34.950Z,13.17
2022-12-13T17:36:03.653Z,12.63
2022-12-13T17:38:31.247Z,12.63
2022-12-13T17:41:00.538Z,14.60
2022-12-13T17:43:34.256Z,13.33
2022-12-13T17:46:03.106Z,13.87
2022-12-13T17:48:39.033Z,16.23
2022-12-13T17:51:08.111Z,15.80
2022-12-13T17:53:35.769Z,18.50
2022-12-13T17:56:04.522Z,13.27
2022-12-13T17:58:32.434Z,15.40
2022-12-13T18:01:00.116Z,13.07
2022-12-13T18:03:27.997Z,13.80
2022-12-13T18:06:00.160Z,15.27
2022-12-13T18:08:28.111Z,14.63
2022-12-13T18:11:15.654Z,15.00
2022-12-13T18:13:44.431Z,18.03
2022-12-13T18:16:13.255Z,16.33
2022-12-13T18:18:40.715Z,15.93
2022-12-13T18:21:11.037Z,16.03
2022-12-13T18:23:38.824Z,17.63
2022-12-13T18:26:07.188Z,15.40
2022-12-13T18:28:34.950Z,15.03
2022-12-13T18:31:03.848Z,14.23
2022-12-13T18:33:32.221Z,15.80
2022-12-13T18:35:59.715Z,16.93
2022-12-13T18:38:35.994Z,16.57
2022-12-13T18:41:06.846Z,14.93
2022-12-13T18:43:34.575Z,17.90
2022-12-13T18:46:02.897Z,23.43
2022-12-13T18:48:30.997Z,19.77
2022-12-13T18:50:59.250Z,21.93
2022-12-13T18:53:28.342Z,18.80
2022-12-13T18:56:01.583Z,19.00
2022-12-13T18:58:29.081Z,16.97
2022-12-13T19:00:57.153Z,16.67
2022-12-13T19:03:25.401Z,18.70
2022-12-13T19:05:53.724Z,17.60
2022-12-13T19:08:25.994Z,20.10
2022-12-13T19:10:55.091Z,19.33
2022-12-13T19:13:25.075Z,18.00
2022-12-13T19:15:53.526Z,16.27
2022-12-13T19:18:21.670Z,16.35
2022-12-13T19:20:49.740Z,19.25
2022-12-13T19:23:17.942Z,21.05
2022-12-13T19:25:48.614Z,19.42
2022-12-13T19:28:18.201Z,18.77
2022-12-13T19:30:46.744Z,19.00
2022-12-13T19:33:14.611Z,17.70
2022-12-13T19:35:42.928Z,17.33
2022-12-13T19:38:10.376Z,15.67
2022-12-13T19:40:39.159Z,17.40
2022-12-13T19:43:06.831Z,18.77
2022-12-13T19:45:35.665Z,17.00
2022-12-13T19:48:03.325Z,20.20
2022-12-13T19:50:31.018Z,17.30
2022-12-13T19:52:58.516Z,16.57
2022-12-13T19:55:25.985Z,16.20
2022-12-13T19:57:53.687Z,18.40
2022-12-13T20:00:21.173Z,15.13
2022-12-13T20:02:50.446Z,18.40
2022-12-13T20:05:18.317Z,18.13
2022-12-13T20:07:45.772Z,17.83
2022-12-13T20:10:15.966Z,17.97
2022-12-13T20:12:44.702Z,17.07
2022-12-13T20:15:12.118Z,18.53
2022-12-13T20:17:39.562Z,16.67
2022-12-13T20:20:08.878Z,16.77
2022-12-13T20:22:36.362Z,20.60
2022-12-13T20:25:03.878Z,19.93
2022-12-13T20:27:31.279Z,20.57
2022-12-13T20:29:59.743Z,18.43
2022-12-13T20:32:27.201Z,17.93
2022-12-13T20:34:55.514Z,16.50
2022-12-13T20:37:27.315Z,18.03
2022-12-13T20:39:54.792Z,15.93
2022-12-13T20:42:22.204Z,16.50
2022-12-13T20:44:49.654Z,16.73
2022-12-13T20:47:17.358Z,17.60
2022-12-13T20:49:44.820Z,16.43
2022-12-13T20:52:16.864Z,19.73
2022-12-13T20:54:45.701Z,19.93
2022-12-13T20:57:13.181Z,17.17
2022-12-13T20:59:40.807Z,17.70
2022-12-13T21:02:08.331Z,16.43
2022-12-13T21:04:35.770Z,18.93
2022-12-13T21:07:03.678Z,17.37
2022-12-13T21:09:31.982Z,17.70
2022-12-13T21:12:00.837Z,17.70
2022-12-13T21:14:29.958Z,18.50
2022-12-13T21:16:57.982Z,19.70
2022-12-13T21:19:26.244Z,17.80
2022-12-13T21:21:54.310Z,16.37
2022-12-13T21:24:22.557Z,17.27
2022-12-13T21:26:51.116Z,18.00
2022-12-13T21:29:19.998Z,18.33
2022-12-13T21:31:49.603Z,19.10
2022-12-13T21:34:17.945Z,17.37
2022-12-13T21:36:46.320Z,16.43
2022-12-13T21:39:14.968Z,19.90
2022-12-13T21:41:42.890Z,22.53
2022-12-13T21:44:11.197Z,17.23
2022-12-13T21:47:11.792Z,18.83
2022-12-13T21:49:27.370Z,18.43
2022-12-13T21:51:54.978Z,18.37
2022-12-13T21:54:22.777Z,18.87
2022-12-13T21:57:07.872Z,22.33
2022-12-13T21:59:35.373Z,21.20
2022-12-13T22:02:15.612Z,18.47
2022-12-13T22:04:44.384Z,19.53
2022-12-13T22:07:12.550Z,19.20
2022-12-13T22:09:40.215Z,20.73
2022-12-13T22:12:08.498Z,18.47
2022-12-13T22:14:36.001Z,19.23
2022-12-13T22:17:04.906Z,19.93
2022-12-13T22:19:32.384Z,22.37
2022-12-13T22:21:59.858Z,18.97
2022-12-13T22:24:27.250Z,18.40
2022-12-13T22:26:54.777Z,19.97
2022-12-13T22:29:22.274Z,18.60
2022-12-13T22:31:49.844Z,18.63
2022-12-13T22:34:18.630Z,17.77
2022-12-13T22:36:46.054Z,20.83
2022-12-13T22:39:15.982Z,18.13
2022-12-13T22:41:43.448Z,19.60
2022-12-13T22:44:11.478Z,21.63
2022-12-13T22:46:38.973Z,18.10
2022-12-13T22:49:06.650Z,21.00
2022-12-13T22:51:35.714Z,18.03
2022-12-13T22:54:03.512Z,17.50
2022-12-13T22:56:31.011Z,18.40
2022-12-13T22:59:01.198Z,20.90
2022-12-13T23:01:30.157Z,16.83
2022-12-13T23:03:57.769Z,22.13
2022-12-13T23:06:26.187Z,20.30
2022-12-13T23:08:55.854Z,18.83
2022-12-13T23:11:41.536Z,18.73
2022-12-13T23:14:10.267Z,19.37
2022-12-13T23:16:37.899Z,19.07
2022-12-13T23:19:39.633Z,18.27
2022-12-13T23:21:54.281Z,19.07
2022-12-13T23:24:23.098Z,17.83
2022-12-13T23:26:50.635Z,19.97
2022-12-13T23:29:18.136Z,18.47
2022-12-13T23:31:48.531Z,19.33
2022-12-13T23:34:16.950Z,19.30
2022-12-13T23:36:44.437Z,20.87
2022-12-13T23:39:12.139Z,18.73
2022-12-13T23:41:40.933Z,18.10
2022-12-13T23:44:08.402Z,21.70
2022-12-13T23:46:36.645Z,20.53
2022-12-13T23:49:04.889Z,19.40
2022-12-13T23:51:32.841Z,22.33
2022-12-13T23:54:00.348Z,20.10
2022-12-13T23:56:27.782Z,22.13
2022-12-13T23:58:56.556Z,18.90
